sensor_id;sensor_type;location;lat;lon;timestamp;pressure;altitude;pressure_sealevel;temperature
78669;BMP280;67984;45.118;20.724;2023-03-31T00:05:25;100421.13;;;13.13
78669;BMP280;67984;45.118;20.724;2023-03-31T00:15:26;100417.44;;;13.11
78669;BMP280;67984;45.118;20.724;2023-03-31T00:25:27;100429.13;;;12.99
78669;BMP280;67984;45.118;20.724;2023-03-31T00:35:28;100420.19;;;12.90
78669;BMP280;67984;45.118;20.724;2023-03-31T00:45:29;100406.00;;;12.84
78669;BMP280;67984;45.118;20.724;2023-03-31T00:55:39;100390.28;;;12.87
78669;BMP280;67984;45.118;20.724;2023-03-31T01:05:46;100399.56;;;12.95
78669;BMP280;67984;45.118;20.724;2023-03-31T01:15:49;100391.91;;;13.18
78669;BMP280;67984;45.118;20.724;2023-03-31T01:37:10;100389.56;;;13.31
78669;BMP280;67984;45.118;20.724;2023-03-31T01:46:59;100374.59;;;13.28
78669;BMP280;67984;45.118;20.724;2023-03-31T02:07:14;100370.53;;;13.20
78669;BMP280;67984;45.118;20.724;2023-03-31T02:17:20;100364.97;;;13.18
78669;BMP280;67984;45.118;20.724;2023-03-31T02:27:27;100335.19;;;12.98
78669;BMP280;67984;45.118;20.724;2023-03-31T02:37:32;100315.22;;;12.71
78669;BMP280;67984;45.118;20.724;2023-03-31T02:47:33;100300.31;;;12.61
78669;BMP280;67984;45.118;20.724;2023-03-31T03:18:18;100283.19;;;12.49
78669;BMP280;67984;45.118;20.724;2023-03-31T03:28:19;100286.25;;;12.44
78669;BMP280;67984;45.118;20.724;2023-03-31T03:38:20;100332.63;;;12.40
78669;BMP280;67984;45.118;20.724;2023-03-31T03:48:20;100339.72;;;12.40
78669;BMP280;67984;45.118;20.724;2023-03-31T03:58:21;100318.44;;;12.34
78669;BMP280;67984;45.118;20.724;2023-03-31T04:08:23;100322.19;;;12.30
78669;BMP280;67984;45.118;20.724;2023-03-31T04:18:24;100308.41;;;12.26
78669;BMP280;67984;45.118;20.724;2023-03-31T04:28:43;100304.97;;;12.39
78669;BMP280;67984;45.118;20.724;2023-03-31T04:38:50;100314.31;;;12.40
78669;BMP280;67984;45.118;20.724;2023-03-31T04:48:54;100309.41;;;12.42
78669;BMP280;67984;45.118;20.724;2023-03-31T04:58:54;100291.09;;;12.42
78669;BMP280;67984;45.118;20.724;2023-03-31T05:08:55;100283.97;;;12.46
78669;BMP280;67984;45.118;20.724;2023-03-31T05:18:56;100284.28;;;12.55
78669;BMP280;67984;45.118;20.724;2023-03-31T05:28:57;100283.03;;;12.74
78669;BMP280;67984;45.118;20.724;2023-03-31T05:38:57;100273.94;;;12.85
78669;BMP280;67984;45.118;20.724;2023-03-31T05:48:58;100255.38;;;13.09
78669;BMP280;67984;45.118;20.724;2023-03-31T05:58:59;100253.38;;;13.24
78669;BMP280;67984;45.118;20.724;2023-03-31T06:09:00;100248.50;;;13.55
78669;BMP280;67984;45.118;20.724;2023-03-31T06:19:01;100238.25;;;13.68
78669;BMP280;67984;45.118;20.724;2023-03-31T06:29:02;100253.63;;;13.92
78669;BMP280;67984;45.118;20.724;2023-03-31T06:39:03;100255.31;;;14.55
78669;BMP280;67984;45.118;20.724;2023-03-31T06:49:04;100257.91;;;14.77
78669;BMP280;67984;45.118;20.724;2023-03-31T06:59:04;100268.59;;;15.09
78669;BMP280;67984;45.118;20.724;2023-03-31T07:09:05;100262.94;;;15.30
78669;BMP280;67984;45.118;20.724;2023-03-31T07:19:06;100265.72;;;15.39
78669;BMP280;67984;45.118;20.724;2023-03-31T07:29:10;100268.19;;;15.65
78669;BMP280;67984;45.118;20.724;2023-03-31T07:39:11;100270.13;;;15.65
78669;BMP280;67984;45.118;20.724;2023-03-31T07:49:11;100259.47;;;15.52
78669;BMP280;67984;45.118;20.724;2023-03-31T07:59:17;100244.50;;;15.84
78669;BMP280;67984;45.118;20.724;2023-03-31T08:09:18;100246.63;;;16.21
78669;BMP280;67984;45.118;20.724;2023-03-31T08:19:19;100241.50;;;16.46
78669;BMP280;67984;45.118;20.724;2023-03-31T08:29:19;100229.66;;;16.66
78669;BMP280;67984;45.118;20.724;2023-03-31T08:39:20;100213.09;;;17.06
78669;BMP280;67984;45.118;20.724;2023-03-31T08:49:22;100197.66;;;17.33
78669;BMP280;67984;45.118;20.724;2023-03-31T08:59:26;100194.34;;;17.66
78669;BMP280;67984;45.118;20.724;2023-03-31T09:20:29;100170.66;;;18.73
78669;BMP280;67984;45.118;20.724;2023-03-31T09:30:31;100148.03;;;18.63
78669;BMP280;67984;45.118;20.724;2023-03-31T09:40:33;100133.63;;;18.64
78669;BMP280;67984;45.118;20.724;2023-03-31T09:50:57;100110.06;;;18.78
78669;BMP280;67984;45.118;20.724;2023-03-31T10:01:00;100100.59;;;18.99
78669;BMP280;67984;45.118;20.724;2023-03-31T10:21:05;100073.00;;;19.80
78669;BMP280;67984;45.118;20.724;2023-03-31T10:31:06;100046.34;;;20.42
78669;BMP280;67984;45.118;20.724;2023-03-31T10:41:08;100027.69;;;20.60
78669;BMP280;67984;45.118;20.724;2023-03-31T10:51:27;100012.94;;;20.68
78669;BMP280;67984;45.118;20.724;2023-03-31T11:01:32;99992.91;;;21.05
78669;BMP280;67984;45.118;20.724;2023-03-31T11:22:14;99935.94;;;20.77
78669;BMP280;67984;45.118;20.724;2023-03-31T11:53:16;99853.06;;;20.67
78669;BMP280;67984;45.118;20.724;2023-03-31T12:03:22;99832.97;;;20.90
78669;BMP280;67984;45.118;20.724;2023-03-31T12:23:42;99802.09;;;21.35
78669;BMP280;67984;45.118;20.724;2023-03-31T12:33:48;99814.56;;;22.03
78669;BMP280;67984;45.118;20.724;2023-03-31T12:44:00;99787.50;;;22.24
78669;BMP280;67984;45.118;20.724;2023-03-31T12:55:05;99773.78;;;21.86
78669;BMP280;67984;45.118;20.724;2023-03-31T13:04:40;99765.97;;;21.77
78669;BMP280;67984;45.118;20.724;2023-03-31T13:14:47;99745.44;;;21.58
78669;BMP280;67984;45.118;20.724;2023-03-31T13:24:48;99735.69;;;21.95
78669;BMP280;67984;45.118;20.724;2023-03-31T13:55:33;99680.09;;;21.91
78669;BMP280;67984;45.118;20.724;2023-03-31T14:05:43;99668.75;;;21.91
78669;BMP280;67984;45.118;20.724;2023-03-31T14:15:54;99661.34;;;21.55
78669;BMP280;67984;45.118;20.724;2023-03-31T14:46:31;99613.22;;;21.93
78669;BMP280;67984;45.118;20.724;2023-03-31T14:56:36;99596.00;;;21.63
78669;BMP280;67984;45.118;20.724;2023-03-31T15:06:39;99588.22;;;21.34
78669;BMP280;67984;45.118;20.724;2023-03-31T15:16:43;99585.03;;;21.30
78669;BMP280;67984;45.118;20.724;2023-03-31T15:26:46;99571.34;;;20.78
78669;BMP280;67984;45.118;20.724;2023-03-31T15:36:55;99546.66;;;20.52
78669;BMP280;67984;45.118;20.724;2023-03-31T15:47:01;99548.91;;;20.59
78669;BMP280;67984;45.118;20.724;2023-03-31T15:57:07;99525.88;;;20.65
78669;BMP280;67984;45.118;20.724;2023-03-31T16:07:15;99519.81;;;20.45
78669;BMP280;67984;45.118;20.724;2023-03-31T16:17:26;99512.66;;;20.02
78669;BMP280;67984;45.118;20.724;2023-03-31T16:27:28;99483.53;;;19.59
78669;BMP280;67984;45.118;20.724;2023-03-31T16:37:30;99471.28;;;19.18
78669;BMP280;67984;45.118;20.724;2023-03-31T16:47:31;99462.59;;;18.80
78669;BMP280;67984;45.118;20.724;2023-03-31T16:57:32;99447.94;;;18.47
78669;BMP280;67984;45.118;20.724;2023-03-31T17:07:33;99431.38;;;18.14
78669;BMP280;67984;45.118;20.724;2023-03-31T17:17:34;99434.06;;;17.97
78669;BMP280;67984;45.118;20.724;2023-03-31T17:27:35;99448.22;;;17.85
78669;BMP280;67984;45.118;20.724;2023-03-31T17:37:36;99440.34;;;17.67
78669;BMP280;67984;45.118;20.724;2023-03-31T17:47:36;99438.28;;;17.62
78669;BMP280;67984;45.118;20.724;2023-03-31T17:57:38;99446.78;;;17.57
78669;BMP280;67984;45.118;20.724;2023-03-31T18:07:39;99439.91;;;17.42
78669;BMP280;67984;45.118;20.724;2023-03-31T18:17:40;99436.25;;;17.39
78669;BMP280;67984;45.118;20.724;2023-03-31T18:27:42;99425.69;;;17.39
78669;BMP280;67984;45.118;20.724;2023-03-31T18:37:43;99411.50;;;17.28
78669;BMP280;67984;45.118;20.724;2023-03-31T18:47:44;99428.94;;;17.16
78669;BMP280;67984;45.118;20.724;2023-03-31T18:57:45;99415.31;;;17.09
78669;BMP280;67984;45.118;20.724;2023-03-31T19:07:46;99406.34;;;17.06
78669;BMP280;67984;45.118;20.724;2023-03-31T19:17:47;99403.44;;;16.95
78669;BMP280;67984;45.118;20.724;2023-03-31T19:27:47;99399.03;;;16.84
78669;BMP280;67984;45.118;20.724;2023-03-31T19:37:48;99389.66;;;16.74
78669;BMP280;67984;45.118;20.724;2023-03-31T19:47:50;99398.44;;;16.71
78669;BMP280;67984;45.118;20.724;2023-03-31T19:57:51;99396.09;;;16.64
78669;BMP280;67984;45.118;20.724;2023-03-31T20:07:52;99393.44;;;16.64
78669;BMP280;67984;45.118;20.724;2023-03-31T20:17:53;99386.44;;;16.61
78669;BMP280;67984;45.118;20.724;2023-03-31T20:27:56;99378.38;;;16.55
78669;BMP280;67984;45.118;20.724;2023-03-31T20:37:56;99375.91;;;16.52
78669;BMP280;67984;45.118;20.724;2023-03-31T20:47:57;99364.59;;;16.51
78669;BMP280;67984;45.118;20.724;2023-03-31T20:57:58;99365.03;;;16.41
78669;BMP280;67984;45.118;20.724;2023-03-31T21:07:58;99342.75;;;16.33
78669;BMP280;67984;45.118;20.724;2023-03-31T21:17:59;99337.31;;;16.28
78669;BMP280;67984;45.118;20.724;2023-03-31T21:28:00;99367.25;;;16.12
78669;BMP280;67984;45.118;20.724;2023-03-31T21:38:01;99375.44;;;16.05
78669;BMP280;67984;45.118;20.724;2023-03-31T21:48:04;99378.09;;;16.14
78669;BMP280;67984;45.118;20.724;2023-03-31T21:58:05;99365.50;;;16.09
78669;BMP280;67984;45.118;20.724;2023-03-31T22:08:06;99368.13;;;16.00
78669;BMP280;67984;45.118;20.724;2023-03-31T22:18:06;99377.97;;;15.87
78669;BMP280;67984;45.118;20.724;2023-03-31T22:28:08;99366.09;;;15.74
78669;BMP280;67984;45.118;20.724;2023-03-31T22:38:11;99340.25;;;15.60
78669;BMP280;67984;45.118;20.724;2023-03-31T22:48:12;99366.69;;;15.57
78669;BMP280;67984;45.118;20.724;2023-03-31T22:58:13;99359.97;;;15.34
78669;BMP280;67984;45.118;20.724;2023-03-31T23:08:14;99371.31;;;14.89
78669;BMP280;67984;45.118;20.724;2023-03-31T23:18:15;99356.72;;;14.51
78669;BMP280;67984;45.118;20.724;2023-03-31T23:28:17;99343.53;;;14.42
78669;BMP280;67984;45.118;20.724;2023-03-31T23:38:19;99339.38;;;14.32
78669;BMP280;67984;45.118;20.724;2023-03-31T23:48:20;99332.78;;;14.15
78669;BMP280;67984;45.118;20.724;2023-03-31T23:58:21;99315.53;;;14.02
